Time;durP1;ratioP1;P1;durP2;ratioP2;P2;SDS_P1;SDS_P2;PMS_P1;PMS_P2;Temp;Humidity;BMP_temperature;BMP_pressure;BME280_temperature;BME280_humidity;BME280_pressure;Samples;Min_cycle;Max_cycle;Signal;HPM_P1;HPM_P2
2024/01/27 00:00:32;;;;;;;4.63;3.40;;;;;;;4.81;61.90;97383.19;5087679;28;20221;-59
2024/01/27 00:02:59;;;;;;;7.80;3.90;;;;;;;4.43;62.33;97332.56;5087353;28;20294;-59
2024/01/27 00:05:26;;;;;;;8.13;4.50;;;;;;;4.60;63.33;97388.69;5087592;28;20243;-61
2024/01/27 00:07:57;;;;;;;6.47;3.80;;;;;;;4.57;63.18;97389.63;5087282;28;20198;-59
2024/01/27 00:10:24;;;;;;;6.73;3.40;;;;;;;4.65;63.23;97398.03;5087058;28;20230;-60
2024/01/27 00:12:52;;;;;;;7.77;3.27;;;;;;;4.68;63.49;97397.09;5087627;28;20239;-58
2024/01/27 00:15:19;;;;;;;6.70;3.77;;;;;;;4.83;62.46;97397.69;5087646;28;20685;-61
2024/01/27 00:17:46;;;;;;;5.47;3.50;;;;;;;4.87;62.76;97417.28;5087798;28;20758;-62
2024/01/27 00:20:13;;;;;;;4.83;3.77;;;;;;;4.78;62.31;97389.22;5087457;28;20547;-60
2024/01/27 00:22:40;;;;;;;5.73;3.30;;;;;;;4.83;62.78;97399.41;5087618;28;20284;-59
2024/01/27 00:25:08;;;;;;;5.73;3.63;;;;;;;4.87;63.09;97409.59;5087521;28;20216;-61
2024/01/27 00:27:36;;;;;;;6.70;3.23;;;;;;;4.93;62.34;97398.38;5087021;28;20288;-61
2024/01/27 00:30:04;;;;;;;5.53;3.20;;;;;;;5.01;61.66;97390.56;5086803;28;20202;-62
2024/01/27 00:32:33;;;;;;;7.70;3.07;;;;;;;4.97;61.45;97394.06;5087339;28;20207;-62
2024/01/27 00:35:01;;;;;;;7.10;3.40;;;;;;;4.95;61.99;97392.34;5086628;28;20206;-59
2024/01/27 00:37:29;;;;;;;5.30;2.90;;;;;;;4.90;61.33;97409.53;5086915;28;20201;-61
2024/01/27 00:39:56;;;;;;;6.83;3.53;;;;;;;4.73;62.56;97396.16;5068166;28;20202;-59
2024/01/27 00:42:24;;;;;;;4.60;2.90;;;;;;;4.71;62.83;97384.25;5086498;28;20616;-60
2024/01/27 00:44:52;;;;;;;7.43;3.50;;;;;;;4.59;62.64;97393.00;5086772;28;20292;-60
2024/01/27 00:47:19;;;;;;;4.60;3.47;;;;;;;4.57;63.49;97394.75;5086780;28;20540;-60
2024/01/27 00:49:46;;;;;;;6.23;3.50;;;;;;;4.59;63.20;97387.00;5068558;28;20280;-58
2024/01/27 00:52:14;;;;;;;3.90;2.60;;;;;;;4.49;62.63;97390.59;5086746;28;20236;-60
2024/01/27 00:54:41;;;;;;;6.43;3.03;;;;;;;4.39;63.47;97384.75;5086633;28;20205;-61
2024/01/27 00:57:08;;;;;;;5.07;2.60;;;;;;;4.23;63.63;97370.50;5086540;28;20201;-59
2024/01/27 00:59:35;;;;;;;5.40;2.70;;;;;;;4.16;64.36;97376.63;5086279;28;20200;-58
2024/01/27 01:02:02;;;;;;;3.00;2.23;;;;;;;4.15;64.52;97359.53;5086562;28;20219;-59
2024/01/27 01:04:29;;;;;;;4.07;2.30;;;;;;;4.21;64.59;97362.00;5086027;28;20211;-59
2024/01/27 01:06:56;;;;;;;4.67;2.77;;;;;;;4.29;63.97;97359.28;5086286;28;20219;-60
2024/01/27 01:09:24;;;;;;;4.40;2.70;;;;;;;4.37;63.63;97353.19;5068387;28;20213;-60
2024/01/27 01:11:51;;;;;;;4.80;3.40;;;;;;;4.23;64.18;97329.50;5086440;28;20215;-58
2024/01/27 01:14:18;;;;;;;7.60;5.27;;;;;;;4.34;63.84;97360.94;5086108;28;20193;-59
2024/01/27 01:16:45;;;;;;;6.73;4.53;;;;;;;4.16;64.17;97350.97;5086041;28;20208;-59
2024/01/27 01:19:12;;;;;;;8.00;4.50;;;;;;;4.01;64.81;97349.50;5086015;28;20198;-58
2024/01/27 01:21:40;;;;;;;10.70;5.40;;;;;;;3.86;65.21;97344.59;5086319;28;20194;-58
2024/01/27 01:24:07;;;;;;;8.60;4.87;;;;;;;3.94;64.95;97344.47;5085907;28;20238;-59
2024/01/27 01:26:34;;;;;;;5.70;4.20;;;;;;;3.93;64.80;97343.66;5085925;28;20292;-58
2024/01/27 01:29:02;;;;;;;6.27;4.20;;;;;;;3.79;64.87;97344.72;5085963;28;20247;-60
2024/01/27 01:31:29;;;;;;;6.00;3.60;;;;;;;3.83;64.95;97331.00;5085978;28;20254;-63
2024/01/27 01:33:56;;;;;;;6.23;3.83;;;;;;;3.78;64.96;97332.75;5085867;28;20219;-59
2024/01/27 01:36:23;;;;;;;5.87;3.90;;;;;;;3.78;65.47;97336.19;5085980;28;20314;-60
2024/01/27 01:38:50;;;;;;;4.47;3.33;;;;;;;3.82;64.91;97348.06;5086114;28;20189;-60
2024/01/27 01:41:18;;;;;;;6.57;3.70;;;;;;;3.69;65.62;97335.47;5085649;28;20201;-61
2024/01/27 01:43:45;;;;;;;5.60;3.53;;;;;;;3.76;65.06;97337.06;5086153;28;20277;-60
2024/01/27 01:46:12;;;;;;;6.47;3.60;;;;;;;3.51;65.47;97335.72;5085926;28;20611;-59
2024/01/27 01:48:39;;;;;;;5.43;3.70;;;;;;;3.59;65.84;97329.63;5085675;28;20224;-59
2024/01/27 01:51:07;;;;;;;7.77;4.23;;;;;;;3.59;65.85;97336.44;5085695;28;20231;-60
2024/01/27 01:53:35;;;;;;;6.97;4.00;;;;;;;3.52;65.56;97332.28;5085594;28;20235;-58
2024/01/27 01:56:02;;;;;;;6.40;4.20;;;;;;;3.29;65.80;97300.19;5085347;28;20205;-60
2024/01/27 01:58:34;;;;;;;5.57;3.23;;;;;;;3.35;66.26;97308.63;5085500;28;20257;-58
2024/01/27 02:01:01;;;;;;;4.27;3.17;;;;;;;3.27;66.69;97299.34;5087345;28;20200;-59
2024/01/27 02:03:28;;;;;;;5.57;3.50;;;;;;;3.35;66.67;97318.88;5089620;28;20203;-59
2024/01/27 02:05:56;;;;;;;7.47;4.10;;;;;;;3.25;66.11;97318.16;5089827;28;20201;-61
2024/01/27 02:08:23;;;;;;;6.37;3.70;;;;;;;3.08;66.45;97305.56;5089504;28;20214;-58
2024/01/27 02:10:50;;;;;;;4.60;3.50;;;;;;;3.32;66.90;97317.19;5089601;28;20384;-58
2024/01/27 02:13:22;;;;;;;6.43;4.00;;;;;;;3.06;67.56;97307.28;5089309;28;20192;-59
2024/01/27 02:15:52;;;;;;;6.27;4.40;;;;;;;3.13;67.20;97298.66;5089403;28;20246;-59
2024/01/27 02:18:39;;;;;;;6.83;4.13;;;;;;;3.15;67.44;97279.03;5074315;28;20212;-59
2024/01/27 02:21:06;;;;;;;7.77;4.60;;;;;;;3.20;67.74;97289.19;5071047;28;20238;-59
2024/01/27 02:23:33;;;;;;;6.57;4.33;;;;;;;3.23;67.41;97305.38;5089086;28;20232;-59
2024/01/27 02:26:00;;;;;;;6.27;4.03;;;;;;;3.34;66.99;97304.41;5089401;28;20246;-59
2024/01/27 02:28:27;;;;;;;7.77;4.37;;;;;;;3.01;67.62;97311.59;5089346;28;20192;-59
2024/01/27 02:30:54;;;;;;;7.23;4.27;;;;;;;2.67;67.78;97289.00;5089254;28;20232;-59
2024/01/27 02:33:21;;;;;;;6.53;4.63;;;;;;;2.53;68.97;97314.72;5089280;28;20211;-60
2024/01/27 02:35:49;;;;;;;7.10;4.40;;;;;;;2.55;69.58;97320.66;5089287;28;20278;-59
2024/01/27 02:38:16;;;;;;;6.63;4.27;;;;;;;2.40;69.80;97315.69;5089364;28;20192;-60
2024/01/27 02:40:43;;;;;;;7.47;4.27;;;;;;;2.48;70.22;97319.88;5089415;28;20196;-59
2024/01/27 02:43:10;;;;;;;10.57;4.60;;;;;;;2.62;69.21;97314.59;5089187;28;20184;-58
2024/01/27 02:45:37;;;;;;;8.80;4.83;;;;;;;2.63;70.10;97305.25;5087489;28;20248;-59
2024/01/27 02:48:04;;;;;;;9.57;4.73;;;;;;;2.69;69.37;97311.13;5088815;28;20200;-59
2024/01/27 02:50:32;;;;;;;9.70;5.03;;;;;;;2.71;69.50;97311.97;5088849;28;20257;-60
2024/01/27 02:52:59;;;;;;;9.57;5.63;;;;;;;2.81;68.88;97313.56;5089083;28;20200;-59
2024/01/27 02:55:26;;;;;;;7.93;5.67;;;;;;;2.67;69.56;97320.53;5088997;28;20287;-59
2024/01/27 02:57:53;;;;;;;11.93;6.80;;;;;;;2.74;68.71;97309.34;5088715;28;20215;-59
2024/01/27 03:00:20;;;;;;;14.03;8.20;;;;;;;2.86;68.44;97310.94;5088727;28;20231;-59
2024/01/27 03:02:47;;;;;;;11.67;7.70;;;;;;;2.64;68.91;97306.94;5088587;28;20202;-59
2024/01/27 03:05:14;;;;;;;16.33;9.30;;;;;;;2.34;69.66;97270.63;5088756;28;20644;-60
2024/01/27 03:07:41;;;;;;;13.80;9.07;;;;;;;2.79;69.66;97317.84;5088391;28;20687;-58
2024/01/27 03:10:08;;;;;;;17.43;7.80;;;;;;;2.87;68.76;97308.38;5088939;28;20200;-59
2024/01/27 03:12:35;;;;;;;9.57;6.43;;;;;;;2.73;69.05;97292.34;5086969;28;20213;-62
2024/01/27 03:15:03;;;;;;;10.93;7.13;;;;;;;2.78;68.70;97313.56;5088696;28;20192;-62
2024/01/27 03:17:31;;;;;;;7.50;6.20;;;;;;;2.87;68.48;97299.84;5088210;28;20228;-59
2024/01/27 03:19:58;;;;;;;9.73;6.93;;;;;;;2.88;68.54;97293.88;5088517;28;20204;-59
2024/01/27 03:22:25;;;;;;;9.27;5.73;;;;;;;2.65;68.61;97295.84;5088497;28;20188;-59
2024/01/27 03:24:55;;;;;;;12.37;7.53;;;;;;;2.53;69.96;97304.50;5088020;28;20730;-59
2024/01/27 03:27:22;;;;;;;11.70;6.70;;;;;;;2.39;70.59;97308.91;5088407;28;20757;-61
2024/01/27 03:29:49;;;;;;;9.63;5.90;;;;;;;2.40;70.39;97295.25;5088114;28;20234;-60
2024/01/27 03:32:16;;;;;;;10.73;6.47;;;;;;;2.47;70.35;97286.66;5088157;28;20315;-61
2024/01/27 03:34:45;;;;;;;8.60;6.07;;;;;;;2.26;71.20;97251.97;5088029;28;20204;-58
2024/01/27 03:37:12;;;;;;;7.60;5.60;;;;;;;2.29;71.08;97251.91;5088124;28;20632;-59
2024/01/27 03:39:42;;;;;;;7.87;5.83;;;;;;;2.57;69.52;97257.59;5088257;28;20295;-59
2024/01/27 03:42:10;;;;;;;10.70;5.23;;;;;;;2.54;69.24;97272.94;5088058;28;20605;-63
2024/01/27 03:44:37;;;;;;;8.40;5.40;;;;;;;2.54;70.83;97261.88;5088197;28;20188;-60
2024/01/27 03:47:04;;;;;;;8.50;6.10;;;;;;;2.62;69.23;97260.94;5088090;28;20709;-60
2024/01/27 03:49:31;;;;;;;9.67;5.77;;;;;;;2.51;70.17;97264.47;5088083;28;20627;-59
2024/01/27 03:51:58;;;;;;;11.83;6.60;;;;;;;2.34;69.87;97274.88;5087837;28;20223;-59
2024/01/27 03:54:25;;;;;;;9.90;6.53;;;;;;;2.04;72.45;97283.66;5088082;28;20203;-60
2024/01/27 03:56:52;;;;;;;9.53;5.90;;;;;;;2.06;73.17;97281.09;5087720;28;20759;-61
2024/01/27 03:59:20;;;;;;;7.20;5.50;;;;;;;2.04;73.42;97285.38;5087527;28;20250;-60
2024/01/27 04:01:47;;;;;;;9.03;4.77;;;;;;;2.08;72.98;97287.06;5087765;28;20262;-59
2024/01/27 04:04:14;;;;;;;7.30;4.53;;;;;;;2.17;72.13;97289.50;5087987;28;20196;-59
2024/01/27 04:06:41;;;;;;;4.80;3.80;;;;;;;2.15;72.72;97281.84;5087966;28;20670;-60
2024/01/27 04:09:09;;;;;;;8.53;4.20;;;;;;;1.99;72.46;97249.66;5087552;28;20200;-60
2024/01/27 04:11:37;;;;;;;7.30;4.17;;;;;;;1.91;72.11;97258.25;5087519;28;20243;-59
2024/01/27 04:14:05;;;;;;;7.33;4.27;;;;;;;1.83;72.43;97262.56;5087807;28;20212;-59
2024/01/27 04:16:32;;;;;;;6.23;4.47;;;;;;;1.27;74.98;97253.63;5069271;28;20235;-58
2024/01/27 04:18:59;;;;;;;8.20;5.17;;;;;;;1.24;75.27;97256.19;5069191;28;20937;-59
2024/01/27 04:21:27;;;;;;;7.03;4.73;;;;;;;0.78;75.43;97196.94;5087171;28;20227;-59
2024/01/27 04:23:54;;;;;;;6.47;4.73;;;;;;;1.21;75.96;97258.78;5086737;28;20315;-59
2024/01/27 04:26:21;;;;;;;9.33;4.53;;;;;;;1.11;76.03;97257.13;5087273;28;20215;-58
2024/01/27 04:28:48;;;;;;;6.87;4.87;;;;;;;1.02;75.11;97236.78;5087292;28;20200;-59
2024/01/27 04:31:15;;;;;;;8.97;4.53;;;;;;;0.99;76.10;97230.84;5087031;28;20717;-58
2024/01/27 04:33:42;;;;;;;6.57;4.93;;;;;;;0.88;76.38;97225.81;5087048;28;20298;-57
2024/01/27 04:36:10;;;;;;;5.97;4.57;;;;;;;0.90;77.14;97238.53;5086961;28;20185;-58
2024/01/27 04:38:37;;;;;;;8.73;4.67;;;;;;;1.00;76.25;97227.44;5086827;28;20261;-59
2024/01/27 04:41:04;;;;;;;5.67;4.03;;;;;;;1.10;76.85;97229.06;5086957;28;20213;-59
2024/01/27 04:43:31;;;;;;;7.23;4.93;;;;;;;1.21;76.05;97225.63;5087264;28;20201;-59
2024/01/27 04:45:59;;;;;;;6.70;4.77;;;;;;;1.46;75.56;97224.56;5087346;28;20266;-63
2024/01/27 04:48:26;;;;;;;7.87;4.70;;;;;;;1.69;75.15;97232.03;5086991;28;20204;-62
2024/01/27 04:50:53;;;;;;;10.70;5.33;;;;;;;1.76;74.35;97236.25;5086484;28;20204;-60
2024/01/27 04:53:20;;;;;;;6.60;5.10;;;;;;;1.61;74.18;97232.09;5086718;28;20280;-62
2024/01/27 04:55:47;;;;;;;8.50;4.97;;;;;;;1.63;74.44;97229.53;5086644;28;20198;-60
2024/01/27 04:58:14;;;;;;;9.57;4.97;;;;;;;1.62;74.40;97230.41;5068612;28;20830;-61
2024/01/27 05:00:41;;;;;;;8.30;4.80;;;;;;;1.60;74.78;97227.03;5086736;28;20204;-61
2024/01/27 05:03:13;;;;;;;8.47;5.10;;;;;;;1.56;74.82;97223.66;5086821;28;20196;-60
2024/01/27 05:05:42;;;;;;;7.80;4.70;;;;;;;1.64;74.52;97219.34;5086475;28;20549;-62
2024/01/27 05:08:09;;;;;;;9.27;5.00;;;;;;;1.68;73.34;97215.03;5086371;28;20636;-63
2024/01/27 05:10:36;;;;;;;6.93;4.80;;;;;;;1.76;74.01;97230.28;5067833;28;20247;-61
2024/01/27 05:13:04;;;;;;;6.37;4.63;;;;;;;1.82;73.38;97248.09;5085996;28;20231;-59
2024/01/27 05:15:31;;;;;;;9.40;6.10;;;;;;;1.96;73.53;97252.22;5068143;28;20894;-57
2024/01/27 05:17:58;;;;;;;13.67;7.30;;;;;;;1.93;73.75;97236.09;5086443;28;20581;-60
2024/01/27 05:20:25;;;;;;;11.30;6.87;;;;;;;1.99;72.81;97246.25;5068160;28;20211;-58
2024/01/27 05:22:52;;;;;;;13.97;7.03;;;;;;;2.08;73.18;97241.91;5085821;28;20200;-62
2024/01/27 05:25:19;;;;;;;14.37;7.80;;;;;;;2.20;72.60;97256.28;5085880;28;20299;-63
2024/01/27 05:27:46;;;;;;;9.83;7.37;;;;;;;2.19;73.40;97255.44;5085755;28;20302;-61
2024/01/27 05:30:15;;;;;;;16.87;7.03;;;;;;;2.16;73.10;97252.91;5085867;28;20200;-60
2024/01/27 05:32:42;;;;;;;17.63;9.33;;;;;;;2.24;73.34;97247.72;5085912;28;20224;-62
2024/01/27 05:35:10;;;;;;;12.13;6.87;;;;;;;2.34;72.83;97239.94;5084975;28;20213;-62
2024/01/27 05:37:39;;;;;;;12.20;8.40;;;;;;;2.23;72.35;97189.81;5086088;28;20181;-61
2024/01/27 05:40:08;;;;;;;17.13;8.40;;;;;;;2.60;71.65;97249.88;5085940;28;20222;-61
2024/01/27 05:42:35;;;;;;;12.13;7.83;;;;;;;2.53;72.11;97253.38;5085548;28;20794;-63
2024/01/27 05:45:02;;;;;;;14.77;7.60;;;;;;;2.38;72.49;97258.66;5085527;28;20193;-61
2024/01/27 05:47:30;;;;;;;10.00;7.40;;;;;;;2.18;72.96;97263.13;5085576;28;20299;-62
2024/01/27 05:49:57;;;;;;;12.30;7.60;;;;;;;2.16;73.47;97236.75;5085903;28;20303;-61
2024/01/27 05:52:25;;;;;;;9.80;7.20;;;;;;;2.22;73.08;97254.56;5085923;28;20212;-60
2024/01/27 05:54:53;;;;;;;12.07;7.37;;;;;;;2.36;72.64;97255.25;5085902;28;20204;-60
2024/01/27 05:57:20;;;;;;;10.97;6.17;;;;;;;2.28;72.71;97257.06;5086082;28;20250;-59
2024/01/27 05:59:47;;;;;;;10.37;7.30;;;;;;;2.23;72.60;97274.97;5085768;28;20251;-59
2024/01/27 06:02:17;;;;;;;11.90;7.30;;;;;;;2.04;73.86;97275.16;5085547;28;20651;-59
2024/01/27 06:04:45;;;;;;;10.17;6.30;;;;;;;1.89;75.02;97270.19;5085528;28;20197;-59
2024/01/27 06:07:13;;;;;;;13.27;7.93;;;;;;;1.80;75.38;97260.03;5085526;28;20210;-59
2024/01/27 06:09:40;;;;;;;30.83;11.70;;;;;;;1.63;76.02;97263.56;5067282;28;20571;-61
2024/01/27 06:12:07;;;;;;;15.27;8.77;;;;;;;1.68;75.50;97263.53;5085842;28;20258;-60
2024/01/27 06:14:35;;;;;;;12.47;7.50;;;;;;;1.64;75.67;97254.22;5085841;28;20211;-64
2024/01/27 06:17:05;;;;;;;12.83;7.57;;;;;;;1.57;74.87;97233.00;5085463;28;20287;-59
2024/01/27 06:19:32;;;;;;;11.83;8.23;;;;;;;1.82;75.71;97250.66;5085684;28;20193;-59
2024/01/27 06:22:00;;;;;;;14.30;7.67;;;;;;;2.11;74.51;97251.25;5085674;28;20188;-61
2024/01/27 06:24:32;;;;;;;10.63;7.40;;;;;;;2.35;73.28;97241.63;5085678;28;20324;-62
2024/01/27 06:26:59;;;;;;;13.07;7.23;;;;;;;2.56;72.49;97239.69;5086000;28;20200;-61
2024/01/27 06:29:27;;;;;;;11.73;8.43;;;;;;;2.67;72.99;97245.53;5085336;28;20647;-59
2024/01/27 06:31:54;;;;;;;12.53;8.47;;;;;;;2.70;72.48;97243.78;5085051;28;20322;-61
2024/01/27 06:34:21;;;;;;;16.87;9.90;;;;;;;2.86;72.63;97253.00;5085076;28;20203;-59
2024/01/27 06:36:48;;;;;;;18.70;12.10;;;;;;;2.88;71.71;97243.59;5085260;28;20640;-60
2024/01/27 06:39:15;;;;;;;16.23;11.63;;;;;;;2.86;71.77;97235.09;5085355;28;20622;-60
2024/01/27 06:41:42;;;;;;;18.70;10.67;;;;;;;2.93;71.04;97241.81;5085077;28;20227;-60
2024/01/27 06:44:09;;;;;;;13.33;9.83;;;;;;;2.78;71.63;97218.97;5085381;28;20703;-60
2024/01/27 06:46:36;;;;;;;17.30;10.00;;;;;;;2.90;70.96;97251.22;5086161;28;20197;-62
2024/01/27 06:49:03;;;;;;;13.40;9.23;;;;;;;2.92;71.88;97232.44;5088957;28;20698;-61
2024/01/27 06:51:31;;;;;;;13.87;8.53;;;;;;;2.88;71.47;97212.91;5088726;28;20200;-60
2024/01/27 06:54:00;;;;;;;13.40;8.63;;;;;;;3.01;71.73;97223.81;5088506;28;20204;-59
2024/01/27 06:56:27;;;;;;;10.40;7.27;;;;;;;3.00;72.85;97230.63;5088377;28;20747;-59
2024/01/27 06:58:54;;;;;;;10.27;7.87;;;;;;;3.05;72.86;97254.44;5088329;28;20197;-61
2024/01/27 07:01:21;;;;;;;18.83;11.03;;;;;;;3.05;73.54;97243.38;5088377;28;20180;-60
2024/01/27 07:03:48;;;;;;;15.17;9.10;;;;;;;2.98;72.70;97221.28;5088489;28;20652;-59
2024/01/27 07:06:15;;;;;;;23.80;12.30;;;;;;;2.99;72.38;97236.59;5088291;28;20291;-60
2024/01/27 07:08:43;;;;;;;20.40;12.23;;;;;;;2.97;74.07;97232.38;5088480;28;20270;-59
2024/01/27 07:11:10;;;;;;;25.40;13.70;;;;;;;3.15;73.33;97242.38;5088079;28;20196;-59
2024/01/27 07:13:37;;;;;;;23.77;14.67;;;;;;;3.18;72.84;97226.97;5088289;28;20220;-59
2024/01/27 07:16:05;;;;;;;20.67;12.90;;;;;;;3.25;72.98;97238.81;5087952;28;20275;-58
2024/01/27 07:18:34;;;;;;;13.80;10.20;;;;;;;3.25;73.01;97244.78;5088207;28;20290;-59
2024/01/27 07:21:02;;;;;;;28.83;17.80;;;;;;;3.30;72.63;97226.78;5088450;28;20235;-58
2024/01/27 07:23:31;;;;;;;23.07;14.53;;;;;;;3.12;73.25;97212.56;5087969;28;20228;-61
2024/01/27 07:26:03;;;;;;;46.23;24.13;;;;;;;3.26;74.14;97226.00;5088281;28;20414;-63
2024/01/27 07:28:30;;;;;;;25.37;14.03;;;;;;;3.30;74.63;97229.34;5088278;28;20204;-64
2024/01/27 07:30:58;;;;;;;16.83;12.17;;;;;;;3.02;75.50;97208.44;5070205;28;20284;-65
2024/01/27 07:33:25;;;;;;;18.00;11.97;;;;;;;3.02;76.32;97220.38;5088029;28;20221;-62
2024/01/27 07:35:52;;;;;;;16.87;11.50;;;;;;;3.04;77.15;97216.94;5069904;28;20206;-60
2024/01/27 07:38:19;;;;;;;16.23;10.90;;;;;;;2.66;78.31;97200.41;5086249;28;20196;-59
2024/01/27 07:40:46;;;;;;;13.77;8.40;;;;;;;2.40;78.99;97203.25;5087594;28;20276;-60
2024/01/27 07:43:14;;;;;;;12.03;7.80;;;;;;;2.41;80.70;97207.53;5088253;28;20593;-60
2024/01/27 07:45:41;;;;;;;12.67;8.50;;;;;;;2.25;80.76;97203.41;5087734;28;20580;-59
2024/01/27 07:48:08;;;;;;;13.93;8.73;;;;;;;1.85;82.23;97139.16;5087765;28;20200;-60
2024/01/27 07:50:35;;;;;;;13.03;7.27;;;;;;;2.24;82.42;97217.06;5087392;28;20819;-61
2024/01/27 07:53:02;;;;;;;22.70;12.00;;;;;;;2.32;82.85;97231.47;5087444;28;20220;-60
2024/01/27 07:55:29;;;;;;;12.97;8.57;;;;;;;2.26;82.67;97239.19;5087969;28;20188;-61
2024/01/27 07:57:56;;;;;;;11.30;8.73;;;;;;;2.17;84.20;97236.72;5086994;28;20184;-60
2024/01/27 08:00:24;;;;;;;11.97;7.27;;;;;;;2.00;85.62;97232.66;5088097;28;20273;-59
2024/01/27 08:02:51;;;;;;;11.80;7.53;;;;;;;1.84;86.83;97231.06;5087178;28;20253;-59
2024/01/27 08:05:18;;;;;;;10.57;6.60;;;;;;;1.87;88.98;97223.41;5087406;28;20206;-59
2024/01/27 08:07:48;;;;;;;10.07;7.60;;;;;;;1.83;89.40;97232.78;5087068;28;20193;-59
2024/01/27 08:10:15;;;;;;;11.20;7.60;;;;;;;1.86;91.02;97245.50;5087449;28;20200;-59
2024/01/27 08:12:44;;;;;;;11.40;7.57;;;;;;;1.96;91.00;97243.75;5069423;28;20228;-61
2024/01/27 08:15:13;;;;;;;12.30;8.47;;;;;;;2.03;91.70;97247.91;5086932;28;20180;-60
2024/01/27 08:17:40;;;;;;;11.83;7.50;;;;;;;1.86;92.96;97254.88;5086451;28;20250;-59
2024/01/27 08:20:08;;;;;;;19.27;10.13;;;;;;;1.84;94.07;97241.28;5086946;28;20571;-61
2024/01/27 08:22:35;;;;;;;12.83;9.03;;;;;;;1.81;95.05;97233.66;5087239;28;20227;-60
2024/01/27 08:25:03;;;;;;;13.63;9.97;;;;;;;1.97;95.46;97240.31;5086926;28;20228;-59
2024/01/27 08:27:30;;;;;;;16.00;9.50;;;;;;;2.01;96.07;97236.88;5086885;28;20679;-61
2024/01/27 08:29:59;;;;;;;17.83;8.90;;;;;;;2.14;96.76;97246.94;5069074;28;20200;-63
2024/01/27 08:32:26;;;;;;;14.50;7.83;;;;;;;2.17;96.72;97231.59;5086585;28;20820;-61
2024/01/27 08:34:53;;;;;;;13.50;9.17;;;;;;;2.39;96.95;97247.56;5087367;28;20206;-60
2024/01/27 08:37:21;;;;;;;25.93;14.77;;;;;;;2.46;95.92;97244.06;5068629;28;20203;-58
2024/01/27 08:39:50;;;;;;;14.93;10.57;;;;;;;2.46;96.09;97279.84;5086586;28;20192;-60
2024/01/27 08:42:18;;;;;;;11.90;8.63;;;;;;;2.46;96.92;97233.84;5086850;28;20200;-61
2024/01/27 08:44:45;;;;;;;12.33;8.13;;;;;;;2.34;97.08;97188.00;5086484;28;20287;-60
2024/01/27 08:47:12;;;;;;;11.90;7.77;;;;;;;2.46;96.36;97182.75;5086627;28;20196;-62
2024/01/27 08:49:39;;;;;;;18.53;11.33;;;;;;;2.39;96.51;97186.25;5086598;28;20212;-61
2024/01/27 08:52:06;;;;;;;18.70;11.03;;;;;;;2.70;96.98;97222.50;5087004;28;20201;-60
2024/01/27 08:54:33;;;;;;;19.47;11.03;;;;;;;2.74;96.33;97201.16;5086474;28;20188;-60
2024/01/27 08:57:00;;;;;;;15.40;9.70;;;;;;;2.72;96.62;97190.91;5086375;28;20306;-60
2024/01/27 08:59:27;;;;;;;14.77;8.93;;;;;;;2.77;96.61;97190.88;5086246;28;20201;-61
2024/01/27 09:01:55;;;;;;;16.27;11.10;;;;;;;3.00;96.75;97196.53;5086352;28;20188;-61
2024/01/27 09:04:22;;;;;;;17.13;11.67;;;;;;;2.94;96.88;97201.72;5086384;28;20200;-60
2024/01/27 09:06:49;;;;;;;21.53;14.37;;;;;;;3.18;96.15;97212.47;5086099;28;20650;-58
2024/01/27 09:09:16;;;;;;;27.77;17.03;;;;;;;3.43;95.93;97222.34;5086169;28;20224;-59
2024/01/27 09:11:45;;;;;;;36.27;23.10;;;;;;;3.40;95.96;97215.53;5085663;28;20200;-59
2024/01/27 09:14:12;;;;;;;25.93;17.57;;;;;;;3.45;95.91;97200.13;5086315;28;20315;-61
2024/01/27 09:16:40;;;;;;;24.33;15.37;;;;;;;3.38;95.05;97175.50;5086567;28;20589;-60
2024/01/27 09:19:08;;;;;;;42.53;25.17;;;;;;;3.70;96.16;97211.69;5067902;28;20716;-60
2024/01/27 09:21:36;;;;;;;30.83;17.67;;;;;;;3.90;95.16;97222.44;5068172;28;20523;-61
2024/01/27 09:24:04;;;;;;;29.00;17.83;;;;;;;3.99;94.04;97242.78;5085187;28;20270;-64
2024/01/27 09:26:31;;;;;;;27.87;17.87;;;;;;;3.96;94.35;97240.25;5086585;28;20289;-63
2024/01/27 09:28:58;;;;;;;24.37;14.90;;;;;;;4.20;93.64;97223.63;5085509;28;20216;-65
2024/01/27 09:31:26;;;;;;;36.50;21.00;;;;;;;4.05;93.59;97215.34;5085649;28;20200;-62
2024/01/27 09:33:54;;;;;;;23.63;13.60;;;;;;;4.13;94.58;97220.31;5085675;28;20310;-63
2024/01/27 09:36:22;;;;;;;19.33;13.53;;;;;;;4.20;93.68;97208.25;5085522;28;20607;-64
2024/01/27 09:38:49;;;;;;;21.33;13.80;;;;;;;4.02;94.40;97207.69;5085378;28;20196;-63
2024/01/27 09:41:17;;;;;;;18.57;11.70;;;;;;;4.01;94.07;97175.28;5085465;28;20197;-61
2024/01/27 09:43:46;;;;;;;13.40;10.00;;;;;;;4.06;93.58;97191.41;5085479;28;20680;-65
2024/01/27 09:46:17;;;;;;;14.63;10.10;;;;;;;4.10;94.75;97192.22;5085204;28;20208;-63
2024/01/27 09:48:44;;;;;;;13.37;10.10;;;;;;;3.88;94.01;97142.22;5085113;28;20207;-61
2024/01/27 09:51:12;;;;;;;16.27;10.50;;;;;;;3.99;94.66;97188.97;5085145;28;20254;-61
2024/01/27 09:53:40;;;;;;;12.67;9.57;;;;;;;3.97;94.51;97176.22;5085428;28;20219;-63
2024/01/27 09:56:08;;;;;;;13.63;9.10;;;;;;;4.02;95.17;97173.53;5085433;28;20212;-62
2024/01/27 09:58:36;;;;;;;14.10;8.67;;;;;;;3.96;95.44;97171.09;5085120;28;20192;-63
2024/01/27 10:01:04;;;;;;;11.97;8.23;;;;;;;4.02;94.69;97173.53;5085410;28;20246;-63
2024/01/27 10:03:32;;;;;;;12.27;7.93;;;;;;;4.06;93.56;97176.03;5084975;28;20197;-63
2024/01/27 10:06:01;;;;;;;14.93;10.80;;;;;;;3.60;94.12;97170.03;5085089;28;20616;-63
2024/01/27 10:08:28;;;;;;;16.43;11.40;;;;;;;3.71;95.13;97168.13;5084805;28;20194;-63
2024/01/27 10:10:56;;;;;;;16.87;12.30;;;;;;;3.98;94.78;97182.16;5066667;28;20205;-60
2024/01/27 10:13:26;;;;;;;14.93;10.87;;;;;;;4.03;94.59;97159.88;5084692;28;20233;-62
2024/01/27 10:16:05;;;;;;;17.27;11.70;;;;;;;4.13;94.34;97161.38;5085037;28;20197;-60
2024/01/27 10:18:33;;;;;;;16.53;10.70;;;;;;;4.14;95.33;97163.91;5085096;28;20193;-60
2024/01/27 10:21:12;;;;;;;15.13;10.20;;;;;;;4.14;95.58;97158.78;5085170;28;20292;-59
2024/01/27 10:24:19;;;;;;;13.00;8.87;;;;;;;4.19;95.03;97161.28;5088576;28;20252;-62
2024/01/27 10:27:03;;;;;;;12.00;8.93;;;;;;;4.13;95.22;97158.81;5088043;28;20225;-62
2024/01/27 10:29:31;;;;;;;13.83;8.97;;;;;;;4.14;94.51;97158.78;5087486;28;20291;-61
2024/01/27 10:32:10;;;;;;;11.87;8.90;;;;;;;4.20;93.87;97142.47;5089124;28;20277;-60
2024/01/27 10:34:38;;;;;;;16.50;10.00;;;;;;;4.22;94.31;97145.84;5088611;28;20757;-61
2024/01/27 10:37:05;;;;;;;17.23;11.07;;;;;;;3.76;95.83;97135.59;5088717;28;21025;-61
2024/01/27 10:39:32;;;;;;;9.57;6.23;;;;;;;4.56;88.62;97141.72;5089182;28;20220;-60
2024/01/27 10:42:03;;;;;;;4.20;2.80;;;;;;;5.53;80.41;97131.81;5088668;28;20233;-60
2024/01/27 10:44:31;;;;;;;7.20;5.10;;;;;;;5.78;81.44;97143.16;5088874;28;20286;-60
2024/01/27 10:47:02;;;;;;;12.53;8.03;;;;;;;5.60;83.76;97143.63;5088586;28;20190;-61
2024/01/27 10:49:34;;;;;;;10.00;6.93;;;;;;;5.36;83.44;97144.19;5088401;28;20194;-63
2024/01/27 10:52:09;;;;;;;15.63;8.20;;;;;;;5.47;84.13;97143.09;5088389;28;20208;-60
2024/01/27 10:54:38;;;;;;;10.67;7.83;;;;;;;5.30;86.03;97159.75;5088341;28;20227;-60
2024/01/27 10:57:07;;;;;;;17.37;9.57;;;;;;;5.21;86.84;97157.41;5088771;28;20189;-61
2024/01/27 10:59:36;;;;;;;12.60;7.30;;;;;;;5.32;85.01;97148.56;5088264;28;20677;-62
2024/01/27 11:02:04;;;;;;;10.77;6.43;;;;;;;5.56;83.02;97165.13;5088381;28;20665;-61
2024/01/27 11:04:35;;;;;;;3.53;3.23;;;;;;;5.83;79.44;97164.47;5088768;28;20510;-60
2024/01/27 11:07:03;;;;;;;3.37;2.50;;;;;;;6.09;76.78;97151.81;5087811;28;20207;-62
2024/01/27 11:09:30;;;;;;;4.93;3.23;;;;;;;6.21;76.02;97154.06;5087922;28;20206;-63
2024/01/27 11:11:58;;;;;;;6.30;3.37;;;;;;;6.32;76.35;97156.34;5088105;28;20191;-63
2024/01/27 11:14:25;;;;;;;3.47;2.57;;;;;;;6.36;75.66;97151.06;5088725;28;20285;-62
2024/01/27 11:16:58;;;;;;;4.07;3.07;;;;;;;6.43;76.73;97155.16;5087696;28;20203;-63
2024/01/27 11:19:26;;;;;;;5.77;4.20;;;;;;;6.46;77.51;97157.66;5088296;28;20202;-63
2024/01/27 11:22:03;;;;;;;8.13;5.67;;;;;;;6.27;78.69;97156.47;5087741;28;20678;-64
2024/01/27 11:24:31;;;;;;;4.63;3.13;;;;;;;6.19;77.14;97135.25;5088067;28;20341;-62
2024/01/27 11:27:06;;;;;;;4.43;2.90;;;;;;;6.40;75.21;97149.25;5087186;28;20715;-63
2024/01/27 11:29:36;;;;;;;8.77;5.50;;;;;;;6.38;77.24;97123.59;5087307;28;20741;-62
2024/01/27 11:32:03;;;;;;;7.47;5.30;;;;;;;6.46;77.33;97142.22;5087884;28;20256;-60
2024/01/27 11:34:44;;;;;;;7.37;5.13;;;;;;;6.59;76.49;97146.09;5086363;28;20231;-61
2024/01/27 11:37:15;;;;;;;3.73;3.17;;;;;;;6.72;75.42;97138.06;5087697;28;20213;-61
2024/01/27 11:39:43;;;;;;;5.03;3.67;;;;;;;6.88;74.29;97158.16;5061602;28;20216;-63